createdAt,value
2019-02-27T00:09:26.621Z,50.1
2019-02-27T00:20:25.322Z,50.2
2019-02-27T00:32:03.564Z,50.0
2019-02-27T00:43:16.286Z,50.3
2019-02-27T00:54:39.408Z,49.7
2019-02-27T01:06:27.541Z,49.8
2019-02-27T01:18:15.820Z,49.8
2019-02-27T01:29:45.785Z,50.0
2019-02-27T01:41:38.357Z,49.6
2019-02-27T01:52:49.097Z,50.1
2019-02-27T02:04:20.143Z,50.3
2019-02-27T02:15:27.836Z,50.4
2019-02-27T02:27:11.593Z,49.8
2019-02-27T02:38:58.428Z,50.0
2019-02-27T02:50:06.105Z,49.8
2019-02-27T03:02:04.720Z,50.0
2019-02-27T03:13:42.696Z,49.7
2019-02-27T03:25:03.941Z,49.7
2019-02-27T03:37:06.454Z,49.6
2019-02-27T03:59:07.485Z,49.8
2019-02-27T04:10:21.261Z,49.7
2019-02-27T04:38:41.633Z,49.7
2019-02-27T05:02:39.433Z,49.5
2019-02-27T05:13:25.681Z,49.4
2019-02-27T05:23:39.276Z,49.4
2019-02-27T05:33:52.566Z,50.0
2019-02-27T05:44:06.880Z,49.5
2019-02-27T05:54:21.028Z,49.5
2019-02-27T06:04:35.275Z,49.4
2019-02-27T06:14:49.174Z,49.7
2019-02-27T06:25:02.806Z,49.8
2019-02-27T06:35:17.104Z,49.7
2019-02-27T06:45:36.808Z,50.1
2019-02-27T06:55:50.433Z,50.5
2019-02-27T07:06:04.557Z,50.3
2019-02-27T07:16:49.312Z,50.9
2019-02-27T07:27:35.394Z,50.9
2019-02-27T07:38:21.360Z,51.3
2019-02-27T07:48:31.223Z,51.5
2019-02-27T07:58:44.718Z,52.1
2019-02-27T08:09:12.961Z,55.3
2019-02-27T08:19:39.524Z,54.5
2019-02-27T08:31:29.192Z,49.6
2019-02-27T08:41:42.800Z,43.8
2019-02-27T08:51:55.989Z,41.4
2019-02-27T09:02:12.177Z,40.1
2019-02-27T09:13:43.805Z,38.8
2019-02-27T09:23:58.189Z,37.8
2019-02-27T09:34:56.994Z,35.4
2019-02-27T09:45:13.125Z,34.2
2019-02-27T09:56:05.718Z,36.3
2019-02-27T10:06:19.418Z,37.2
2019-02-27T10:16:35.366Z,38.2
2019-02-27T10:26:48.843Z,36.9
2019-02-27T10:37:04.183Z,37.1
2019-02-27T10:47:20.332Z,35.0
2019-02-27T10:58:12.623Z,34.8
2019-02-27T11:08:30.330Z,33.6
2019-02-27T11:18:43.736Z,32.8
2019-02-27T11:28:57.823Z,31.1
2019-02-27T11:39:11.836Z,30.0
2019-02-27T11:49:25.716Z,29.3
2019-02-27T12:00:45.800Z,28.7
2019-02-27T12:10:59.689Z,28.7
2019-02-27T12:21:25.452Z,27.6
2019-02-27T12:31:35.087Z,27.5
2019-02-27T12:41:48.721Z,27.2
2019-02-27T12:52:02.677Z,28.1
2019-02-27T13:02:15.670Z,28.7
2019-02-27T13:12:29.324Z,30.1
2019-02-27T13:23:16.635Z,32.3
2019-02-27T13:33:32.969Z,31.7
2019-02-27T13:43:41.878Z,35.1
2019-02-27T13:54:10.204Z,38.3
2019-02-27T14:04:22.745Z,40.1
2019-02-27T14:15:08.000Z,38.6
2019-02-27T14:25:21.158Z,34.7
2019-02-27T14:36:08.445Z,38.5
2019-02-27T14:46:18.312Z,38.3
2019-02-27T14:56:29.387Z,36.9
2019-02-27T15:06:42.924Z,38.6
2019-02-27T15:17:02.286Z,38.3
2019-02-27T15:27:16.125Z,38.2
2019-02-27T15:37:29.558Z,37.9
2019-02-27T15:47:59.721Z,38.7
2019-02-27T15:58:13.778Z,39.2
2019-02-27T16:08:27.308Z,39.5
2019-02-27T16:19:13.128Z,39.6
2019-02-27T16:32:02.238Z,40.0
2019-02-27T16:43:25.845Z,40.4
2019-02-27T17:07:53.218Z,40.3
2019-02-27T17:18:05.076Z,41.1
2019-02-27T17:28:16.324Z,41.8
2019-02-27T17:38:30.284Z,42.6
2019-02-27T17:48:45.924Z,43.3
2019-02-27T17:58:55.820Z,44.1
2019-02-27T18:09:09.033Z,44.5
2019-02-27T18:19:22.439Z,45.1
2019-02-27T18:30:07.991Z,45.6
2019-02-27T18:41:52.460Z,45.6
2019-02-27T18:53:23.842Z,45.9
2019-02-27T19:04:35.008Z,46.0
2019-02-27T19:15:38.362Z,46.2
2019-02-27T19:28:19.016Z,46.4
2019-02-27T19:39:07.950Z,46.6
2019-02-27T19:50:35.450Z,46.9
2019-02-27T20:01:49.300Z,47.1
2019-02-27T20:14:01.919Z,47.1
2019-02-27T20:25:53.212Z,47.1
2019-02-27T21:03:27.224Z,47.7
2019-02-27T21:14:49.782Z,47.5
2019-02-27T21:25:04.927Z,48.2
2019-02-27T21:35:50.687Z,50.7
2019-02-27T21:46:38.566Z,51.1
2019-02-27T21:57:33.463Z,50.8
2019-02-27T22:07:46.739Z,51.1
2019-02-27T22:18:00.020Z,51.5
2019-02-27T22:28:17.329Z,51.9
2019-02-27T22:39:00.340Z,51.5
2019-02-27T22:49:11.547Z,51.5
2019-02-27T22:59:25.513Z,52.3
2019-02-27T23:10:10.070Z,52.1
2019-02-27T23:20:23.420Z,51.7
2019-02-27T23:31:07.964Z,51.7
2019-02-27T23:41:39.737Z,52.0
2019-02-27T23:51:53.914Z,52.0
